Time;durP1;ratioP1;P1;durP2;ratioP2;P2;SDS_P1;SDS_P2;PMS_P1;PMS_P2;Temp;Humidity;BMP_temperature;BMP_pressure;BME280_temperature;BME280_humidity;BME280_pressure;Samples;Min_cycle;Max_cycle;Signal;HPM_P1;HPM_P2
2020/12/19 00:00:35;;;;;;;17.83;11.77;;;3.50;99.90;;;4.26;100.00;100906.00;4734790;30;20325;-61
2020/12/19 00:03:02;;;;;;;19.47;13.23;;;3.40;99.90;;;4.62;100.00;100887.94;4735141;30;20314;-61
2020/12/19 00:05:29;;;;;;;16.63;11.20;;;3.50;99.90;;;4.78;100.00;100888.84;4734799;30;20236;-61
2020/12/19 00:07:56;;;;;;;15.57;11.47;;;3.60;99.90;;;4.99;100.00;100894.53;4735505;30;20634;-61
2020/12/19 00:10:23;;;;;;;16.60;12.30;;;3.80;99.90;;;4.84;100.00;100901.50;4735529;30;20213;-61
2020/12/19 00:12:51;;;;;;;16.23;12.03;;;3.80;99.90;;;4.74;100.00;100897.31;4734230;30;20222;-61
2020/12/19 00:15:19;;;;;;;17.63;12.30;;;3.80;99.90;;;4.21;100.00;100904.84;4735579;30;20254;-61
2020/12/19 00:17:46;;;;;;;17.33;12.83;;;3.60;99.90;;;4.49;100.00;100901.78;4738091;30;20696;-61
2020/12/19 00:20:13;;;;;;;16.43;12.33;;;3.60;99.90;;;4.21;100.00;100894.19;4752828;30;20361;-60
2020/12/19 00:22:43;;;;;;;19.30;13.33;;;3.50;99.90;;;4.14;100.00;100896.66;4750498;30;20222;-61
2020/12/19 00:25:11;;;;;;;18.33;12.97;;;3.40;99.90;;;4.23;100.00;100900.19;4718181;30;20308;-60
2020/12/19 00:27:38;;;;;;;18.67;12.93;;;3.40;99.90;;;4.33;100.00;100900.88;4715734;30;20223;-60
2020/12/19 00:30:07;;;;;;;17.03;12.17;;;3.40;99.90;;;4.21;100.00;100897.66;4717005;30;20285;-62
2020/12/19 00:32:38;;;;;;;19.60;13.00;;;3.40;99.90;;;4.04;100.00;100892.44;4716749;30;20352;-61
2020/12/19 00:35:06;;;;;;;19.93;12.40;;;3.30;99.90;;;4.27;100.00;100891.69;4717377;30;20210;-60
2020/12/19 00:37:34;;;;;;;16.07;12.20;;;3.30;99.90;;;4.24;100.00;100891.19;4716875;30;20220;-60
2020/12/19 00:40:01;;;;;;;18.10;12.80;;;3.30;99.90;;;4.45;100.00;100880.91;4717240;30;20329;-61
2020/12/19 00:42:28;;;;;;;16.97;12.50;;;3.50;99.90;;;4.18;100.00;100881.16;4716526;30;20215;-61
2020/12/19 00:44:55;;;;;;;18.53;12.40;;;3.30;99.90;;;4.00;100.00;100878.59;4716616;30;20214;-60
2020/12/19 00:47:23;;;;;;;16.33;11.70;;;3.30;99.90;;;3.92;100.00;100875.88;4717086;30;20715;-60
2020/12/19 00:49:50;;;;;;;18.63;12.83;;;3.20;99.90;;;4.10;100.00;100875.78;4716892;30;20215;-60
2020/12/19 00:52:20;;;;;;;17.10;12.43;;;3.20;99.90;;;4.01;100.00;100874.09;4716745;30;20215;-59
2020/12/19 00:54:47;;;;;;;17.33;12.47;;;3.20;99.90;;;3.95;100.00;100877.38;4716581;30;20211;-60
2020/12/19 00:57:15;;;;;;;16.87;12.53;;;3.10;99.90;;;3.92;100.00;100867.91;4716047;30;20312;-61
2020/12/19 00:59:42;;;;;;;18.37;12.43;;;3.10;99.90;;;3.88;100.00;100866.53;4716415;30;20241;-60
2020/12/19 01:02:09;;;;;;;16.23;11.67;;;3.10;99.90;;;3.88;100.00;100866.53;4716750;30;20647;-60
2020/12/19 01:04:37;;;;;;;17.17;12.27;;;3.10;99.90;;;4.15;100.00;100862.81;4716718;30;20609;-61
2020/12/19 01:07:04;;;;;;;18.57;12.53;;;3.20;99.90;;;3.98;100.00;100861.06;4716410;30;20247;-60
2020/12/19 01:09:31;;;;;;;17.30;13.13;;;3.20;99.90;;;4.11;100.00;100864.97;4716663;30;20300;-61
2020/12/19 01:11:59;;;;;;;15.40;12.00;;;3.10;99.90;;;4.06;100.00;100869.94;4716386;30;20211;-60
2020/12/19 01:14:26;;;;;;;16.93;11.83;;;3.20;99.90;;;3.78;100.00;100860.50;4716264;30;20245;-61
2020/12/19 01:16:53;;;;;;;16.37;12.33;;;3.10;99.90;;;3.92;100.00;100861.72;4716281;30;20612;-61
2020/12/19 01:19:20;;;;;;;14.37;11.57;;;3.10;99.90;;;3.91;100.00;100860.88;4745519;30;20223;-61
2020/12/19 01:21:48;;;;;;;15.43;10.63;;;3.10;99.90;;;3.96;100.00;100858.56;4751377;30;20211;-61
2020/12/19 01:24:15;;;;;;;15.00;10.93;;;3.10;99.90;;;4.05;100.00;100857.63;4751226;30;20339;-61
2020/12/19 01:26:43;;;;;;;16.70;11.47;;;3.10;99.90;;;4.51;100.00;100854.44;4751390;30;20645;-60
2020/12/19 01:29:10;;;;;;;14.47;10.40;;;3.30;99.90;;;4.66;100.00;100852.78;4751504;30;20220;-61
2020/12/19 01:31:37;;;;;;;13.70;10.10;;;3.40;99.90;;;4.83;100.00;100853.63;4739921;30;20301;-61
2020/12/19 01:34:04;;;;;;;14.47;9.87;;;3.60;99.90;;;4.90;100.00;100851.97;4733593;30;20317;-62
2020/12/19 01:36:31;;;;;;;12.60;10.17;;;3.70;99.90;;;4.79;100.00;100854.97;4733188;30;20307;-60
2020/12/19 01:38:59;;;;;;;14.13;9.93;;;3.80;99.90;;;4.57;100.00;100840.44;4733595;30;20214;-60
2020/12/19 01:41:26;;;;;;;11.57;9.23;;;3.70;99.90;;;4.53;100.00;100844.41;4733219;30;20233;-61
2020/12/19 01:43:56;;;;;;;14.57;10.07;;;3.70;99.90;;;4.43;100.00;100846.41;4733288;30;20650;-60
2020/12/19 01:46:51;;;;;;;13.93;9.93;;;3.70;99.90;;;4.50;100.00;100844.75;4733263;30;20222;-61
2020/12/19 01:49:19;;;;;;;13.30;9.93;;;3.60;99.90;;;4.54;100.00;100832.75;4733323;30;20250;-60
2020/12/19 01:51:49;;;;;;;13.73;10.07;;;3.60;99.90;;;4.42;100.00;100834.06;4733333;30;20244;-61
2020/12/19 01:54:20;;;;;;;13.57;9.23;;;3.50;99.90;;;4.56;100.00;100833.44;4733591;30;20221;-60
2020/12/19 01:56:53;;;;;;;13.20;9.50;;;3.60;99.90;;;4.30;100.00;100830.03;4733369;30;20208;-61
2020/12/19 01:59:23;;;;;;;12.10;9.07;;;3.50;99.90;;;4.59;100.00;100818.91;4733453;30;20198;-60
2020/12/19 02:01:53;;;;;;;11.40;8.57;;;3.50;99.90;;;4.52;100.00;100804.56;4732925;30;20334;-60
2020/12/19 02:04:22;;;;;;;11.33;8.20;;;3.60;99.90;;;4.72;100.00;100804.09;4733423;30;20290;-59
2020/12/19 02:06:52;;;;;;;10.67;8.20;;;3.60;99.90;;;4.93;100.00;100806.25;4733266;30;20299;-61
2020/12/19 02:09:23;;;;;;;10.33;8.23;;;3.70;99.90;;;4.94;100.00;100800.75;4733420;30;20198;-61
2020/12/19 02:11:51;;;;;;;9.00;7.80;;;3.80;99.90;;;4.83;100.00;100797.59;4733499;30;20193;-60
2020/12/19 02:14:18;;;;;;;11.60;8.30;;;3.90;99.90;;;4.78;100.00;100798.09;4733324;30;20296;-60
2020/12/19 02:16:58;;;;;;;12.73;9.03;;;3.80;99.90;;;4.48;100.00;100790.72;4732951;30;20303;-63
2020/12/19 02:19:26;;;;;;;10.83;7.90;;;3.80;99.90;;;4.41;100.00;100789.75;4748638;30;20298;-60
2020/12/19 02:21:54;;;;;;;13.57;8.40;;;3.70;99.90;;;4.45;100.00;100790.22;4750341;30;20242;-61
2020/12/19 02:24:23;;;;;;;11.97;8.23;;;3.60;99.90;;;4.75;100.00;100789.59;4750960;30;20224;-60
2020/12/19 02:26:53;;;;;;;10.73;7.63;;;3.70;99.90;;;4.64;100.00;100774.75;4750493;30;20247;-60
2020/12/19 02:29:21;;;;;;;11.00;8.40;;;3.70;99.90;;;4.54;100.00;100782.06;4750546;30;20216;-60
2020/12/19 02:31:49;;;;;;;10.60;8.13;;;3.70;99.90;;;4.78;100.00;100774.09;4749975;30;20669;-61
2020/12/19 02:34:18;;;;;;;10.33;7.80;;;3.80;99.90;;;4.59;100.00;100766.41;4750734;30;20583;-61
2020/12/19 02:36:45;;;;;;;10.20;8.27;;;3.80;99.90;;;4.58;100.00;100767.38;4754004;30;20223;-60
2020/12/19 02:39:12;;;;;;;11.73;8.97;;;3.80;99.90;;;4.33;100.00;100765.72;4754120;30;20249;-60
2020/12/19 02:41:42;;;;;;;11.90;8.13;;;3.60;99.90;;;4.34;100.00;100764.72;4753836;30;20234;-61
2020/12/19 02:44:13;;;;;;;11.67;8.50;;;3.60;99.90;;;4.45;100.00;100758.22;4754050;30;20282;-61
2020/12/19 02:46:41;;;;;;;11.27;8.67;;;3.60;99.90;;;4.54;100.00;100765.22;4753380;30;20203;-60
2020/12/19 02:49:10;;;;;;;11.53;8.40;;;3.60;99.90;;;4.81;100.00;100754.22;4753480;30;20247;-60
2020/12/19 02:51:37;;;;;;;10.27;8.67;;;3.70;99.90;;;4.76;100.00;100754.72;4753560;30;20657;-60
2020/12/19 02:54:05;;;;;;;10.47;8.43;;;3.80;99.90;;;4.91;100.00;100750.38;4753649;30;20679;-61
2020/12/19 02:56:33;;;;;;;10.27;7.63;;;3.80;99.90;;;4.81;100.00;100746.22;4753744;30;20219;-60
2020/12/19 02:59:01;;;;;;;10.63;7.67;;;3.90;99.90;;;4.65;100.00;100755.06;4753916;30;20213;-60
2020/12/19 03:01:29;;;;;;;9.83;7.80;;;3.90;99.90;;;4.77;100.00;100755.53;4753309;30;20696;-61
2020/12/19 03:03:57;;;;;;;9.80;7.87;;;4.00;99.90;;;4.65;100.00;100754.25;4753834;30;20285;-61
2020/12/19 03:06:31;;;;;;;11.07;8.70;;;4.00;99.90;;;4.93;100.00;100753.72;4753398;30;20306;-60
2020/12/19 03:08:58;;;;;;;10.03;8.07;;;4.00;99.90;;;4.85;100.00;100756.38;4753658;30;20225;-60
2020/12/19 03:11:26;;;;;;;10.57;8.03;;;4.00;99.90;;;4.81;100.00;100765.75;4753446;30;20209;-60
2020/12/19 03:13:53;;;;;;;10.67;8.07;;;4.00;99.90;;;4.79;100.00;100765.06;4753566;30;20304;-60
2020/12/19 03:16:22;;;;;;;9.87;8.07;;;3.90;99.90;;;4.76;100.00;100764.56;4753077;30;20218;-60
2020/12/19 03:18:50;;;;;;;9.80;8.20;;;3.90;99.90;;;4.71;100.00;100759.75;4753461;30;20301;-67
2020/12/19 03:21:18;;;;;;;9.57;7.63;;;3.90;99.90;;;4.65;100.00;100759.59;4752985;30;20249;-68
2020/12/19 03:23:45;;;;;;;10.13;8.00;;;3.80;99.90;;;4.44;100.00;100757.41;4753386;30;20525;-69
2020/12/19 03:26:13;;;;;;;10.43;7.77;;;3.70;99.90;;;4.28;100.00;100757.38;4753323;30;20246;-69
2020/12/19 03:28:40;;;;;;;9.47;7.27;;;3.60;99.90;;;4.21;100.00;100763.53;4753361;30;20285;-68
2020/12/19 03:31:07;;;;;;;11.07;7.93;;;3.50;99.90;;;4.84;100.00;100753.88;4752938;30;20745;-69
2020/12/19 03:33:35;;;;;;;10.60;8.43;;;3.70;99.90;;;4.40;100.00;100749.88;4752973;30;20648;-68
2020/12/19 03:36:04;;;;;;;11.77;8.80;;;3.60;99.90;;;4.74;100.00;100745.22;4753098;30;20385;-69
2020/12/19 03:38:31;;;;;;;10.93;8.53;;;3.60;99.90;;;4.77;100.00;100748.38;4752960;30;20247;-68
2020/12/19 03:40:59;;;;;;;10.03;8.00;;;3.70;99.90;;;5.05;100.00;100738.19;4752976;30;20233;-69
2020/12/19 03:43:26;;;;;;;11.00;8.07;;;3.90;99.90;;;5.04;100.00;100739.16;4752897;30;20706;-68
2020/12/19 03:45:53;;;;;;;10.90;7.73;;;3.90;99.90;;;4.55;100.00;100751.72;4752667;30;20315;-68
2020/12/19 03:48:21;;;;;;;11.43;8.70;;;3.80;99.90;;;4.48;100.00;100740.03;4752781;30;20298;-69
2020/12/19 03:50:49;;;;;;;12.60;8.50;;;3.70;99.90;;;4.41;100.00;100735.56;4752920;30;20208;-68
2020/12/19 03:53:17;;;;;;;10.67;8.33;;;3.70;99.90;;;4.25;100.00;100741.69;4753027;30;20255;-70
2020/12/19 03:55:44;;;;;;;11.03;8.77;;;3.60;99.90;;;4.59;100.00;100734.41;4752793;30;20339;-68
2020/12/19 03:58:11;;;;;;;10.43;8.53;;;3.60;99.90;;;4.44;100.00;100728.06;4752606;30;20695;-68
2020/12/19 04:00:38;;;;;;;12.50;8.73;;;3.60;99.90;;;4.35;100.00;100728.19;4752732;30;20383;-69
2020/12/19 04:03:06;;;;;;;11.63;8.57;;;3.50;99.90;;;4.36;100.00;100717.41;4752531;30;20259;-68
2020/12/19 04:05:33;;;;;;;10.90;7.80;;;3.60;99.90;;;4.64;100.00;100721.38;4752509;30;20478;-69
2020/12/19 04:08:01;;;;;;;11.33;8.23;;;3.60;99.90;;;4.55;100.00;100724.25;4752544;30;20215;-70
2020/12/19 04:10:28;;;;;;;11.87;8.40;;;3.60;99.90;;;4.53;100.00;100721.72;4752454;30;20693;-69
2020/12/19 04:12:55;;;;;;;10.10;8.20;;;3.60;99.90;;;4.63;100.00;100714.38;4752520;30;20213;-68
2020/12/19 04:15:23;;;;;;;12.40;8.03;;;3.70;99.90;;;4.50;100.00;100716.72;4752321;30;20222;-69
2020/12/19 04:17:50;;;;;;;11.27;8.67;;;3.70;99.90;;;4.74;100.00;100715.88;4752612;30;20243;-69
2020/12/19 04:20:18;;;;;;;10.73;8.07;;;3.70;99.90;;;4.68;100.00;100709.38;4752364;30;20811;-68
2020/12/19 04:22:46;;;;;;;10.23;8.03;;;3.80;99.90;;;4.82;100.00;100707.88;4752356;30;20316;-68
2020/12/19 04:25:14;;;;;;;10.43;8.07;;;3.80;99.90;;;4.63;100.00;100714.38;4752406;30;20217;-69
2020/12/19 04:27:41;;;;;;;10.87;8.23;;;3.80;99.90;;;4.91;100.00;100709.50;4752319;30;20227;-69
2020/12/19 04:30:10;;;;;;;10.47;8.30;;;3.80;99.90;;;4.75;100.00;100714.88;4752091;30;20309;-69
2020/12/19 04:32:37;;;;;;;9.80;7.70;;;3.80;99.90;;;4.47;100.00;100711.72;4751885;30;20230;-69
2020/12/19 04:35:06;;;;;;;10.27;8.33;;;3.70;99.90;;;4.36;100.00;100711.22;4752291;30;20301;-70
2020/12/19 04:37:33;;;;;;;12.17;8.47;;;3.60;99.90;;;4.27;100.00;100707.72;4752085;30;20280;-68
2020/12/19 04:40:01;;;;;;;11.47;9.00;;;3.50;99.90;;;4.21;100.00;100708.38;4752031;30;20218;-69
2020/12/19 04:42:35;;;;;;;10.80;8.57;;;3.40;99.90;;;4.23;100.00;100708.22;4752273;30;20193;-69
2020/12/19 04:45:05;;;;;;;12.00;9.13;;;3.40;99.90;;;4.15;100.00;100710.84;4751857;30;20417;-70
2020/12/19 04:47:33;;;;;;;10.53;8.30;;;3.30;99.90;;;4.18;100.00;100700.69;4751610;30;20235;-68
2020/12/19 04:50:00;;;;;;;11.07;8.73;;;3.30;99.90;;;3.93;100.00;100704.34;4751802;30;20265;-70
2020/12/19 04:52:29;;;;;;;12.23;9.27;;;3.30;99.90;;;4.08;100.00;100694.69;4751890;30;20223;-69
2020/12/19 04:54:56;;;;;;;11.03;9.00;;;3.20;99.90;;;3.89;100.00;100687.00;4751944;30;20208;-69
2020/12/19 04:57:23;;;;;;;12.47;9.30;;;3.10;99.90;;;3.80;100.00;100690.66;4751320;30;20310;-68
2020/12/19 04:59:51;;;;;;;12.40;8.93;;;3.00;99.90;;;3.63;100.00;100688.94;4751492;30;20583;-68
2020/12/19 05:02:19;;;;;;;11.10;8.20;;;3.00;99.90;;;3.69;100.00;100693.59;4751690;30;20237;-68
2020/12/19 05:04:46;;;;;;;11.00;8.73;;;2.90;99.90;;;3.91;100.00;100692.19;4751973;30;20214;-68
2020/12/19 05:07:15;;;;;;;11.80;8.93;;;2.90;99.90;;;3.90;100.00;100693.16;4751226;30;20725;-68
2020/12/19 05:09:44;;;;;;;10.90;8.80;;;3.00;99.90;;;3.73;100.00;100694.97;4751507;30;20299;-69
2020/12/19 05:12:13;;;;;;;10.83;8.33;;;2.90;99.90;;;3.76;100.00;100686.63;4751505;30;20430;-69
2020/12/19 05:14:41;;;;;;;9.67;7.70;;;2.90;99.90;;;3.98;100.00;100686.03;4751052;30;20684;-69
2020/12/19 05:17:09;;;;;;;9.60;8.03;;;3.00;99.90;;;3.95;100.00;100685.50;4751805;30;20305;-68
2020/12/19 05:19:37;;;;;;;9.80;7.73;;;3.00;99.90;;;4.24;100.00;100680.56;4751477;30;20304;-69
2020/12/19 05:22:05;;;;;;;9.17;7.47;;;3.10;99.90;;;4.07;100.00;100679.72;4751336;30;20237;-69
2020/12/19 05:24:35;;;;;;;10.10;7.63;;;3.20;99.90;;;4.19;100.00;100677.53;4751212;30;20216;-68
2020/12/19 05:27:05;;;;;;;8.70;7.63;;;3.20;99.90;;;3.89;100.00;100681.66;4751562;30;20214;-69
2020/12/19 05:29:36;;;;;;;10.47;7.63;;;3.20;99.90;;;4.03;100.00;100681.03;4751006;30;20207;-69
2020/12/19 05:32:04;;;;;;;9.33;7.13;;;3.20;99.90;;;4.04;100.00;100673.88;4750749;30;20643;-68
2020/12/19 05:34:33;;;;;;;9.80;8.10;;;3.20;99.90;;;3.90;100.00;100678.03;4751368;30;20215;-68
2020/12/19 05:37:01;;;;;;;9.83;8.03;;;3.20;99.90;;;3.97;100.00;100673.72;4751304;30;20210;-68
2020/12/19 05:39:28;;;;;;;9.80;7.47;;;3.20;99.90;;;4.08;100.00;100676.03;4751349;30;20210;-68
2020/12/19 05:41:55;;;;;;;9.53;7.63;;;3.20;99.90;;;3.83;100.00;100669.00;4750739;30;20238;-68
2020/12/19 05:44:24;;;;;;;9.37;7.37;;;3.10;99.90;;;3.93;100.00;100674.19;4751315;30;20225;-69
2020/12/19 05:46:51;;;;;;;9.80;7.97;;;3.10;99.90;;;3.79;100.00;100674.84;4751016;30;20646;-68
2020/12/19 05:49:19;;;;;;;11.60;8.43;;;3.00;99.90;;;3.62;100.00;100673.94;4751049;30;20242;-68
2020/12/19 05:51:48;;;;;;;10.50;7.70;;;3.00;99.90;;;3.62;100.00;100677.44;4750768;30;20632;-69
2020/12/19 05:54:16;;;;;;;10.43;8.30;;;2.90;99.90;;;3.63;100.00;100691.59;4751209;30;20241;-68
2020/12/19 05:56:46;;;;;;;11.00;8.33;;;2.80;99.90;;;3.62;100.00;100684.59;4750815;30;20588;-70
2020/12/19 05:59:15;;;;;;;9.67;7.63;;;2.80;99.90;;;3.75;100.00;100688.47;4751255;30;20285;-68
2020/12/19 06:01:44;;;;;;;8.87;7.23;;;2.80;99.90;;;3.63;100.00;100681.78;4750997;30;20241;-69
2020/12/19 06:04:14;;;;;;;9.53;7.63;;;2.80;99.90;;;3.58;100.00;100669.97;4751148;30;20671;-69
2020/12/19 06:06:44;;;;;;;10.57;8.30;;;2.80;99.90;;;3.56;100.00;100670.13;4751156;30;20288;-68
2020/12/19 06:09:14;;;;;;;10.17;7.67;;;2.80;99.90;;;3.61;100.00;100675.78;4751142;30;20213;-69
2020/12/19 06:11:47;;;;;;;9.57;8.30;;;2.80;99.90;;;3.48;100.00;100672.72;4754377;30;20564;-69
2020/12/19 06:14:20;;;;;;;10.97;7.93;;;2.70;99.90;;;3.55;100.00;100681.75;4754732;30;20202;-69
2020/12/19 06:16:51;;;;;;;9.70;7.47;;;2.70;99.90;;;3.44;100.00;100681.22;4754689;30;20192;-68
2020/12/19 06:19:25;;;;;;;10.33;7.97;;;2.60;99.90;;;3.37;100.00;100686.34;4754597;30;20210;-69
2020/12/19 06:21:54;;;;;;;9.80;7.73;;;2.60;99.90;;;3.28;100.00;100689.16;4754092;30;20257;-68
2020/12/19 06:24:44;;;;;;;8.83;7.20;;;2.60;99.90;;;3.27;100.00;100704.28;4754520;30;20209;-68
2020/12/19 06:27:42;;;;;;;9.80;7.70;;;2.50;99.90;;;3.87;100.00;100704.16;4754598;30;20258;-70
2020/12/19 06:30:30;;;;;;;9.97;7.07;;;2.60;99.90;;;3.55;100.00;100703.06;4754215;30;20201;-70
2020/12/19 06:33:12;;;;;;;9.23;7.00;;;2.60;99.90;;;3.23;100.00;100707.44;4754461;30;20266;-69
2020/12/19 06:35:49;;;;;;;9.00;7.57;;;2.50;99.90;;;3.07;100.00;100718.81;4754355;30;20272;-68
2020/12/19 06:38:43;;;;;;;9.80;7.47;;;2.40;99.90;;;3.22;100.00;100711.91;4754267;30;20217;-68
2020/12/19 06:41:42;;;;;;;9.90;7.80;;;2.40;99.90;;;3.19;100.00;100708.72;4753813;30;20303;-70
2020/12/19 06:44:12;;;;;;;8.47;7.03;;;2.40;99.90;;;3.49;100.00;100709.03;4754025;30;20701;-69
2020/12/19 06:46:39;;;;;;;9.90;7.33;;;2.50;99.90;;;3.20;100.00;100713.91;4754495;30;20221;-69
2020/12/19 06:49:36;;;;;;;9.43;7.43;;;2.40;99.90;;;3.28;100.00;100707.78;4753649;30;20268;-70
2020/12/19 06:52:07;;;;;;;9.93;7.70;;;2.40;99.90;;;3.35;100.00;100709.63;4748596;30;20225;-69
2020/12/19 06:54:37;;;;;;;9.60;6.93;;;2.40;99.90;;;3.18;100.00;100701.75;4753757;30;20657;-69
2020/12/19 06:57:22;;;;;;;9.00;6.50;;;2.40;99.90;;;3.26;100.00;100701.78;4754163;30;20223;-68
2020/12/19 06:59:50;;;;;;;9.10;7.40;;;2.40;99.90;;;3.24;100.00;100695.78;4754040;30;20213;-70
2020/12/19 07:02:20;;;;;;;9.53;7.37;;;2.50;99.90;;;3.28;100.00;100705.13;4753906;30;20229;-69
2020/12/19 07:04:48;;;;;;;8.73;7.30;;;2.50;99.90;;;3.33;100.00;100695.66;4753923;30;20197;-69
2020/12/19 07:07:23;;;;;;;8.73;7.77;;;2.50;99.90;;;3.35;100.00;100706.13;4753480;30;20213;-68
2020/12/19 07:09:58;;;;;;;8.20;6.93;;;2.50;99.90;;;3.40;100.00;100699.34;4739208;30;20209;-69
2020/12/19 07:12:32;;;;;;;8.77;7.13;;;2.50;99.90;;;3.21;100.00;100693.44;4735838;30;20213;-69
2020/12/19 07:15:00;;;;;;;8.23;6.87;;;2.50;99.90;;;3.27;100.00;100695.47;4736146;30;20290;-69
2020/12/19 07:17:27;;;;;;;10.27;7.13;;;2.50;99.90;;;3.49;100.00;100701.06;4736762;30;20245;-69
2020/12/19 07:19:59;;;;;;;7.83;6.93;;;2.50;99.90;;;3.39;100.00;100702.16;4753420;30;20760;-69
2020/12/19 07:22:27;;;;;;;8.17;6.33;;;2.50;99.90;;;3.34;100.00;100700.00;4752972;30;20325;-69
2020/12/19 07:24:55;;;;;;;7.33;6.60;;;2.50;99.90;;;3.35;100.00;100704.31;4753108;30;20591;-70
2020/12/19 07:27:23;;;;;;;8.63;6.63;;;2.50;99.90;;;3.40;100.00;100696.69;4753366;30;20214;-69
2020/12/19 07:29:59;;;;;;;7.60;6.40;;;2.50;99.90;;;3.38;100.00;100696.00;4753533;30;20212;-69
2020/12/19 07:32:27;;;;;;;8.37;6.47;;;2.60;99.90;;;3.64;100.00;100685.28;4753419;30;20291;-70
2020/12/19 07:34:56;;;;;;;9.53;7.20;;;2.60;99.90;;;3.47;100.00;100692.38;4752989;30;20214;-69
2020/12/19 07:37:25;;;;;;;8.40;7.47;;;2.60;99.90;;;3.53;100.00;100685.59;4753228;30;20303;-69
2020/12/19 07:40:05;;;;;;;8.87;6.17;;;2.60;99.90;;;3.55;100.00;100699.59;4752937;30;20304;-70
2020/12/19 07:42:32;;;;;;;8.47;6.40;;;2.70;99.90;;;3.59;100.00;100687.59;4753023;30;20303;-69
2020/12/19 07:45:00;;;;;;;8.37;6.50;;;2.70;99.90;;;3.73;100.00;100693.16;4753105;30;20209;-69
2020/12/19 07:47:28;;;;;;;7.43;5.87;;;2.80;99.90;;;3.76;100.00;100694.63;4752928;30;20299;-69
2020/12/19 07:49:55;;;;;;;8.37;6.43;;;2.80;99.90;;;3.66;100.00;100691.28;4752967;30;20218;-69
2020/12/19 07:52:24;;;;;;;8.50;7.27;;;2.80;99.90;;;3.59;100.00;100704.41;4752861;30;20301;-69
2020/12/19 07:54:58;;;;;;;7.27;6.17;;;2.80;99.90;;;3.83;100.00;100690.31;4752582;30;20308;-68
2020/12/19 07:57:28;;;;;;;6.97;6.10;;;2.90;99.90;;;3.87;100.00;100690.84;4753185;30;20546;-69
2020/12/19 07:59:55;;;;;;;7.27;6.27;;;2.90;99.90;;;3.92;100.00;100689.34;4753768;30;20219;-69
2020/12/19 08:02:24;;;;;;;8.50;6.63;;;3.00;99.90;;;4.07;100.00;100685.03;4753282;30;20237;-69
2020/12/19 08:04:55;;;;;;;6.83;5.73;;;3.00;99.90;;;3.89;100.00;100679.00;4753663;30;20305;-68
2020/12/19 08:07:25;;;;;;;7.17;5.87;;;3.10;99.90;;;3.90;100.00;100679.84;4753238;30;20294;-70
2020/12/19 08:10:01;;;;;;;8.03;6.47;;;3.00;99.90;;;4.05;100.00;100678.19;4753108;30;20747;-69
2020/12/19 08:12:29;;;;;;;8.37;6.57;;;3.10;99.90;;;4.16;100.00;100681.38;4753196;30;20304;-61
2020/12/19 08:14:58;;;;;;;5.97;5.30;;;3.20;99.90;;;4.31;100.00;100677.03;4753378;30;20239;-60
2020/12/19 08:17:27;;;;;;;6.93;5.77;;;3.30;99.90;;;4.54;100.00;100678.03;4752992;30;20252;-61
2020/12/19 08:19:58;;;;;;;7.70;5.77;;;3.40;99.90;;;4.45;100.00;100676.38;4752214;30;20312;-60
2020/12/19 08:22:29;;;;;;;7.27;5.83;;;3.50;99.90;;;4.55;100.00;100668.22;4752186;30;20315;-61
2020/12/19 08:25:00;;;;;;;6.43;5.40;;;3.60;99.90;;;4.53;100.00;100684.38;4752450;30;20207;-61
2020/12/19 08:27:43;;;;;;;7.30;5.60;;;3.60;99.90;;;4.67;100.00;100683.69;4752301;30;20305;-60
2020/12/19 08:30:20;;;;;;;6.60;5.03;;;3.70;99.90;;;4.84;99.74;100677.31;4752101;30;20196;-60
2020/12/19 08:32:54;;;;;;;5.60;4.40;;;3.80;99.90;;;4.95;99.68;100676.13;4751643;30;20257;-61
2020/12/19 08:35:25;;;;;;;5.00;4.50;;;4.00;99.90;;;5.16;99.01;100671.06;4752157;30;20213;-62
2020/12/19 08:38:05;;;;;;;5.33;4.50;;;4.10;99.90;;;5.30;97.51;100675.69;4751751;30;20674;-60
2020/12/19 08:40:36;;;;;;;5.63;4.73;;;4.20;99.90;;;5.36;96.57;100674.16;4752651;30;20218;-61
2020/12/19 08:43:05;;;;;;;4.83;4.33;;;4.40;99.90;;;5.50;96.25;100678.75;4752948;30;20285;-61
2020/12/19 08:45:35;;;;;;;5.17;4.20;;;4.50;99.90;;;5.56;95.49;100670.91;4752583;30;20211;-60
2020/12/19 08:48:06;;;;;;;5.77;4.43;;;4.60;99.90;;;5.47;95.87;100666.59;4751749;30;20666;-61
2020/12/19 08:50:40;;;;;;;4.90;4.37;;;4.60;99.90;;;5.49;95.81;100669.09;4751900;30;20218;-61
2020/12/19 08:53:11;;;;;;;5.57;4.53;;;4.70;99.90;;;6.01;92.56;100664.81;4751802;30;20270;-61
2020/12/19 08:55:39;;;;;;;4.50;4.07;;;4.90;99.90;;;6.21;90.48;100671.34;4751899;30;20629;-61
2020/12/19 08:58:07;;;;;;;5.10;3.97;;;5.00;99.90;;;6.23;91.12;100682.69;4751602;30;20225;-60
2020/12/19 09:00:38;;;;;;;4.90;4.40;;;5.10;99.90;;;6.09;92.13;100692.31;4751544;30;20594;-59
2020/12/19 09:03:09;;;;;;;4.30;3.90;;;5.20;99.90;;;6.14;91.27;100699.78;4751824;30;20214;-68
2020/12/19 09:05:42;;;;;;;5.67;4.37;;;5.20;99.90;;;6.28;90.18;100695.53;4751644;30;20282;-70
2020/12/19 09:08:12;;;;;;;5.40;4.50;;;5.30;99.90;;;6.16;90.88;100708.47;4751305;30;20277;-69
2020/12/19 09:10:41;;;;;;;5.47;4.60;;;5.30;99.90;;;6.05;91.19;100707.03;4751535;30;20302;-69
2020/12/19 09:13:26;;;;;;;5.83;4.90;;;5.30;99.90;;;6.03;92.32;100698.38;4751604;30;20309;-69
2020/12/19 09:15:57;;;;;;;6.43;4.93;;;5.30;99.90;;;6.07;91.57;100706.91;4752039;30;20295;-68
2020/12/19 09:18:32;;;;;;;5.53;4.67;;;5.30;99.90;;;6.16;90.99;100711.16;4751353;30;20208;-69
2020/12/19 09:21:03;;;;;;;5.30;4.60;;;5.30;99.90;;;6.47;89.80;100713.78;4751425;30;20199;-69
2020/12/19 09:23:30;;;;;;;6.67;5.20;;;5.40;99.90;;;6.54;89.06;100706.69;4750597;30;20199;-70
2020/12/19 09:26:01;;;;;;;6.10;4.60;;;5.50;99.90;;;6.62;88.31;100706.63;4750964;30;20230;-70
2020/12/19 09:28:30;;;;;;;5.47;4.20;;;5.60;99.90;;;6.41;89.68;100706.47;4750905;30;20258;-70
2020/12/19 09:30:58;;;;;;;5.47;4.17;;;5.60;99.90;;;6.45;89.43;100697.06;4750937;30;20219;-70
2020/12/19 09:33:26;;;;;;;4.80;4.30;;;5.60;99.90;;;6.38;90.02;100704.13;4750941;30;20686;-72
2020/12/19 09:35:55;;;;;;;5.20;4.47;;;5.60;99.90;;;6.46;89.16;100706.78;4750823;30;20404;-67
2020/12/19 09:38:22;;;;;;;5.43;4.43;;;5.60;99.90;;;6.64;88.24;100705.44;4750631;30;20222;-72
2020/12/19 09:40:50;;;;;;;5.93;4.80;;;5.70;99.90;;;6.63;88.58;100727.84;4751073;30;20587;-70
2020/12/19 09:43:19;;;;;;;6.77;4.23;;;5.70;99.90;;;6.73;88.15;100720.41;4751513;30;20208;-71
2020/12/19 09:45:47;;;;;;;5.50;4.77;;;5.80;99.90;;;6.91;87.53;100701.34;4751384;30;20234;-72
2020/12/19 09:48:14;;;;;;;4.83;4.20;;;5.90;99.90;;;6.90;87.05;100705.84;4750683;30;20251;-72
2020/12/19 09:50:42;;;;;;;5.07;4.33;;;5.90;99.90;;;6.90;87.48;100705.84;4750839;30;20219;-71
2020/12/19 09:53:09;;;;;;;4.83;4.30;;;6.00;99.90;;;6.86;87.31;100698.38;4750315;30;20306;-72
2020/12/19 09:55:36;;;;;;;4.50;4.10;;;6.00;99.90;;;6.88;88.46;100691.81;4750657;30;20220;-70
2020/12/19 09:58:04;;;;;;;4.63;4.13;;;6.00;99.90;;;7.31;86.47;100684.81;4750842;30;20298;-71
2020/12/19 10:00:31;;;;;;;4.57;4.17;;;6.10;99.90;;;7.20;86.90;100686.09;4742662;30;20256;-70
2020/12/19 10:02:58;;;;;;;5.17;4.10;;;6.20;99.90;;;7.38;85.67;100693.78;4715429;30;20782;-70
2020/12/19 10:05:25;;;;;;;4.97;4.03;;;6.30;99.90;;;7.40;85.41;100689.06;4715707;30;20296;-72
2020/12/19 10:07:53;;;;;;;4.70;3.93;;;6.40;99.90;;;7.41;85.14;100683.50;4715327;30;20651;-70
2020/12/19 10:10:30;;;;;;;5.37;4.37;;;6.50;99.90;;;7.63;84.58;100681.72;4715294;30;20729;-70
2020/12/19 10:12:57;;;;;;;4.90;3.57;;;6.60;99.90;;;7.85;83.65;100680.75;4715561;30;20308;-72
2020/12/19 10:15:24;;;;;;;5.93;4.00;;;6.70;99.90;;;7.76;84.19;100678.38;4715704;30;20300;-72
2020/12/19 10:17:52;;;;;;;3.90;3.50;;;6.80;99.90;;;7.65;83.86;100689.56;4723002;30;20698;-71
2020/12/19 10:20:19;;;;;;;4.20;3.53;;;6.80;99.90;;;7.72;83.02;100683.28;4750702;30;20223;-73
2020/12/19 10:22:47;;;;;;;4.40;3.73;;;6.90;99.90;;;7.65;83.73;100681.53;4749857;30;20236;-74
2020/12/19 10:25:15;;;;;;;3.87;3.47;;;6.80;99.90;;;7.70;83.61;100693.38;4750351;30;20714;-73